Time;durP1;ratioP1;P1;durP2;ratioP2;P2;SDS_P1;SDS_P2;PMS_P1;PMS_P2;Temp;Humidity;BMP_temperature;BMP_pressure;BME280_temperature;BME280_humidity;BME280_pressure;Samples;Min_cycle;Max_cycle;Signal;HPM_P1;HPM_P2
2021/12/16 00:08:42;;;;;;;6.00;2.25;;;14.30;71.30;;;;;;4619205;31;20477;-76
2021/12/16 00:19:40;;;;;;;;;;;14.30;71.40;;;;;;4620009;31;20444;-74
2021/12/16 00:20:00;;;;;;;8.68;2.58;;;14.20;71.10;;;;;;4635506;30;19936;-75
2021/12/16 00:33:30;;;;;;;7.95;2.40;;;14.20;71.60;;;;;;4633541;31;20066;-76
2021/12/16 00:35:56;;;;;;;8.35;2.42;;;14.20;71.60;;;;;;4619122;31;20540;-75
2021/12/16 00:38:22;;;;;;;8.85;2.20;;;14.10;71.60;;;;;;4618792;31;20056;-75
2021/12/16 00:40:48;;;;;;;15.13;2.53;;;14.20;71.70;;;;;;4633779;31;20063;-76
2021/12/16 00:43:26;;;;;;;7.68;2.38;;;14.10;71.70;;;;;;4633872;31;20407;-75
2021/12/16 00:54:11;;;;;;;9.70;2.47;;;14.10;71.90;;;;;;4619329;31;20063;-75
2021/12/16 00:56:52;;;;;;;7.32;1.98;;;14.10;71.80;;;;;;4636920;31;20096;-76
2021/12/16 00:59:20;;;;;;;7.38;2.20;;;14.10;71.70;;;;;;4640397;30;20078;-74
2021/12/16 01:01:55;;;;;;;8.55;2.13;;;14.00;71.70;;;;;;4653234;30;20058;-76
2021/12/16 01:08:14;;;;;;;10.95;2.55;;;14.10;71.50;;;;;;4639228;30;20058;-76
2021/12/16 01:39:07;;;;;;;6.50;2.35;;;13.90;72.00;;;;;;4636072;30;20067;-76
2021/12/16 01:41:27;;;;;;;5.55;2.05;;;13.80;72.00;;;;;;4652485;30;20154;-76
2021/12/16 01:49:31;;;;;;;;;;;13.90;72.20;;;;;;4652552;30;20070;-76
2021/12/16 01:55:07;;;;;;;11.27;2.28;;;13.90;72.20;;;;;;4620549;30;20077;-75
2021/12/16 01:57:45;;;;;;;6.75;2.15;;;13.90;72.10;;;;;;4653398;30;20078;-76
2021/12/16 02:00:45;;;;;;;8.15;2.22;;;13.90;72.10;;;;;;4652604;30;20071;-77
2021/12/16 02:03:15;;;;;;;7.32;1.60;;;13.90;72.10;;;;;;4638857;30;20464;-76
2021/12/16 02:06:05;;;;;;;6.43;1.75;;;13.90;72.10;;;;;;4635287;31;20063;-75
2021/12/16 02:08:35;;;;;;;9.45;2.15;;;13.90;72.20;;;;;;4607179;31;20055;-75
2021/12/16 02:27:18;;;;;;;6.60;1.63;;;13.90;72.00;;;;;;4635829;31;20063;-75
2021/12/16 02:27:39;;;;;;;6.30;1.77;;;13.80;72.00;;;;;;4635504;31;20442;-75
2021/12/16 02:33:14;;;;;;;9.20;1.80;;;13.80;72.00;;;;;;4620554;31;20071;-75
2021/12/16 02:35:46;;;;;;;7.43;1.90;;;13.80;72.20;;;;;;4634870;31;20377;-76
2021/12/16 02:38:18;;;;;;;8.85;2.45;;;13.70;72.20;;;;;;4635353;31;20059;-75
2021/12/16 02:40:47;;;;;;;7.10;2.20;;;13.80;72.20;;;;;;4634464;31;20071;-75
2021/12/16 02:48:29;;;;;;;9.52;1.98;;;13.70;72.80;;;;;;4634975;31;20063;-76
2021/12/16 02:50:56;;;;;;;8.68;1.92;;;13.70;72.20;;;;;;4620159;31;20087;-76
2021/12/16 02:53:22;;;;;;;7.72;2.05;;;13.70;72.20;;;;;;4634882;31;20066;-75
2021/12/16 02:55:48;;;;;;;7.88;2.53;;;13.70;72.30;;;;;;4634158;31;20063;-77
2021/12/16 02:58:15;;;;;;;8.00;2.10;;;13.70;72.20;;;;;;4634962;30;20109;-75
2021/12/16 03:00:44;;;;;;;11.60;2.50;;;13.60;72.20;;;;;;4638215;30;20068;-75
2021/12/16 03:03:10;;;;;;;8.48;2.30;;;13.70;72.30;;;;;;4634600;31;20055;-75
2021/12/16 03:05:38;;;;;;;8.90;2.13;;;13.70;72.20;;;;;;4635005;31;20057;-77
2021/12/16 03:08:05;;;;;;;6.90;2.38;;;13.70;72.20;;;;;;4634860;31;20055;-76
2021/12/16 03:13:22;;;;;;;7.63;2.45;;;13.70;72.20;;;;;;4620605;31;20063;-75
2021/12/16 03:19:06;;;;;;;6.25;2.30;;;13.70;72.20;;;;;;4633850;31;20071;-76
2021/12/16 03:21:19;;;;;;;5.38;1.50;;;13.60;72.20;;;;;;4633670;31;20138;-76
2021/12/16 03:40:06;;;;;;;8.32;2.15;;;13.70;72.10;;;;;;4651190;30;20137;-76
2021/12/16 03:42:34;;;;;;;8.55;2.22;;;13.70;72.00;;;;;;4650610;30;20059;-75
2021/12/16 03:48:09;;;;;;;6.72;2.28;;;13.70;71.80;;;;;;4651182;30;20070;-76
2021/12/16 03:50:35;;;;;;;6.37;1.83;;;13.80;71.70;;;;;;4651140;30;20051;-74
2021/12/16 03:53:04;;;;;;;8.27;1.98;;;13.70;71.80;;;;;;4651430;30;20286;-76
2021/12/16 03:55:30;;;;;;;6.40;1.83;;;13.70;71.80;;;;;;4636586;30;20469;-76
2021/12/16 03:57:56;;;;;;;5.82;1.73;;;13.70;71.80;;;;;;4650743;30;20062;-76
2021/12/16 04:00:29;;;;;;;7.38;1.58;;;13.70;71.70;;;;;;4634118;30;20389;-73
2021/12/16 04:02:56;;;;;;;8.45;2.17;;;13.70;71.70;;;;;;4641100;30;20133;-75
2021/12/16 04:05:23;;;;;;;9.75;2.15;;;13.70;71.80;;;;;;4650942;30;20094;-75
2021/12/16 04:07:49;;;;;;;9.73;2.22;;;13.70;71.80;;;;;;4650786;30;20055;-75
2021/12/16 04:10:22;;;;;;;6.35;1.92;;;13.70;71.80;;;;;;4650519;30;20138;-75
2021/12/16 04:12:52;;;;;;;9.05;2.15;;;13.60;71.80;;;;;;4650900;30;20051;-74
2021/12/16 04:15:17;;;;;;;6.72;2.17;;;13.60;71.80;;;;;;4650815;30;20094;-74
2021/12/16 04:17:44;;;;;;;7.00;1.70;;;13.60;71.80;;;;;;4650763;30;20094;-75
2021/12/16 04:20:12;;;;;;;6.70;2.20;;;13.70;71.80;;;;;;4650826;30;20126;-74
2021/12/16 04:22:43;;;;;;;6.68;1.90;;;13.60;71.70;;;;;;4650432;30;20051;-76
2021/12/16 04:25:17;;;;;;;7.03;1.95;;;13.60;71.90;;;;;;4651168;30;20086;-76
2021/12/16 04:27:44;;;;;;;8.07;2.53;;;13.50;71.90;;;;;;4621562;30;20066;-74
2021/12/16 04:30:12;;;;;;;8.13;1.95;;;13.60;71.90;;;;;;4650511;30;20368;-75
2021/12/16 04:32:38;;;;;;;9.13;1.88;;;13.60;72.00;;;;;;4645380;30;20175;-75
2021/12/16 04:35:05;;;;;;;6.45;2.13;;;13.60;72.00;;;;;;4633304;30;20095;-77
2021/12/16 04:37:31;;;;;;;7.97;2.13;;;13.60;72.00;;;;;;4639363;30;20090;-76
2021/12/16 04:39:59;;;;;;;6.03;1.92;;;13.70;72.00;;;;;;4612945;31;20067;-72
2021/12/16 04:42:26;;;;;;;7.90;2.42;;;13.80;71.50;;;;;;4647725;30;20419;-72
2021/12/16 04:44:52;;;;;;;9.80;2.85;;;14.00;71.00;;;;;;4647268;30;20392;-73
2021/12/16 04:47:18;;;;;;;11.55;2.50;;;14.10;70.30;;;;;;4633541;31;20194;-72
2021/12/16 04:49:45;;;;;;;8.02;2.15;;;14.20;69.80;;;;;;4633407;31;20097;-73
2021/12/16 04:52:16;;;;;;;10.27;2.60;;;14.20;69.30;;;;;;4633646;31;20060;-71
2021/12/16 04:54:42;;;;;;;7.70;2.47;;;14.30;68.90;;;;;;4633724;31;20210;-68
2021/12/16 04:57:09;;;;;;;8.43;2.58;;;14.40;68.60;;;;;;4622502;30;20054;-72
2021/12/16 04:59:36;;;;;;;7.80;2.30;;;14.40;68.30;;;;;;4650422;30;20063;-74
2021/12/16 05:02:14;;;;;;;8.35;2.58;;;14.40;68.20;;;;;;4649974;30;20186;-78
2021/12/16 05:04:40;;;;;;;16.85;4.15;;;14.40;69.20;;;;;;4650402;30;20134;-74
2021/12/16 05:07:07;;;;;;;16.17;3.67;;;14.50;72.30;;;;;;4641048;30;20055;-74
2021/12/16 05:12:17;;;;;;;7.43;2.22;;;14.90;73.30;;;;;;4637612;30;20358;-77
2021/12/16 05:14:44;;;;;;;13.90;2.72;;;15.20;71.50;;;;;;4647329;30;20368;-81
2021/12/16 05:17:23;;;;;;;10.25;2.20;;;15.50;70.60;;;;;;4638802;30;20127;-80
2021/12/16 05:19:50;;;;;;;10.32;1.90;;;15.70;70.20;;;;;;4612386;31;20091;-79
2021/12/16 05:25:05;;;;;;;7.40;1.67;;;16.00;69.50;;;;;;4617915;31;20063;-80
2021/12/16 05:27:34;;;;;;;10.98;2.50;;;16.10;69.60;;;;;;4604882;31;20063;-76
2021/12/16 05:30:00;;;;;;;16.90;2.60;;;16.20;70.20;;;;;;4623635;30;20062;-79
2021/12/16 05:32:29;;;;;;;12.50;2.60;;;16.30;70.70;;;;;;4637800;30;20066;-77
2021/12/16 05:34:55;;;;;;;16.70;2.55;;;16.30;70.90;;;;;;4633410;31;20066;-75
2021/12/16 05:37:20;;;;;;;20.35;2.83;;;16.30;71.20;;;;;;4624574;30;20051;-78
2021/12/16 05:39:46;;;;;;;17.65;2.70;;;16.30;71.10;;;;;;4629785;31;20380;-78
2021/12/16 05:42:12;;;;;;;11.35;2.53;;;16.30;71.60;;;;;;4632860;30;20066;-79
2021/12/16 05:44:38;;;;;;;18.77;2.83;;;16.30;71.60;;;;;;4652653;30;20137;-78
2021/12/16 05:47:04;;;;;;;19.60;2.58;;;16.20;71.80;;;;;;4636822;31;20159;-78
2021/12/16 05:49:30;;;;;;;15.75;2.75;;;16.20;72.10;;;;;;4635260;31;20059;-78
2021/12/16 05:51:56;;;;;;;19.40;2.15;;;16.20;72.30;;;;;;4635783;31;20055;-77
2021/12/16 05:54:22;;;;;;;18.23;2.58;;;16.20;72.10;;;;;;4635684;31;20055;-76
2021/12/16 05:56:48;;;;;;;18.83;2.65;;;16.20;72.20;;;;;;4649239;30;20479;-77
2021/12/16 05:59:17;;;;;;;10.27;2.05;;;16.30;72.60;;;;;;4641008;30;20066;-74
2021/12/16 06:01:46;;;;;;;11.20;2.25;;;16.30;72.90;;;;;;4654551;30;20077;-79
2021/12/16 06:04:21;;;;;;;14.55;2.38;;;16.30;72.90;;;;;;4641092;30;20050;-76
2021/12/16 06:06:47;;;;;;;13.52;2.53;;;16.40;72.80;;;;;;4640138;30;20064;-78
2021/12/16 06:09:13;;;;;;;14.82;2.60;;;16.50;73.00;;;;;;4654302;30;20555;-78
2021/12/16 06:11:42;;;;;;;16.55;2.42;;;16.50;72.50;;;;;;4654113;30;20057;-80
2021/12/16 06:28:04;;;;;;;16.33;2.58;;;16.90;71.10;;;;;;4649245;30;20087;-82
2021/12/16 06:30:34;;;;;;;9.38;2.53;;;16.90;70.90;;;;;;4623569;30;20347;-80
2021/12/16 06:33:01;;;;;;;12.55;2.35;;;16.90;70.70;;;;;;4641801;30;20106;-79
2021/12/16 06:35:27;;;;;;;10.38;3.05;;;17.00;70.70;;;;;;4620684;31;20358;-79
2021/12/16 06:37:53;;;;;;;10.68;1.88;;;17.00;70.50;;;;;;4645588;30;20058;-79
2021/12/16 06:40:19;;;;;;;8.88;2.28;;;17.00;70.20;;;;;;4651834;30;20061;-79
2021/12/16 06:42:47;;;;;;;10.20;2.10;;;17.00;70.20;;;;;;4637346;30;20173;-80
2021/12/16 06:45:20;;;;;;;12.80;2.33;;;17.00;70.20;;;;;;4636916;30;20079;-78
2021/12/16 06:47:51;;;;;;;11.68;2.40;;;17.10;70.20;;;;;;4639097;30;20392;-79
2021/12/16 06:50:38;;;;;;;10.93;2.10;;;17.10;70.10;;;;;;4638564;30;20065;-80
2021/12/16 06:53:06;;;;;;;7.53;2.13;;;17.10;70.00;;;;;;4651248;30;20066;-77
2021/12/16 07:01:09;;;;;;;9.85;1.85;;;17.30;69.50;;;;;;4651054;30;20066;-77
2021/12/16 07:03:47;;;;;;;5.90;1.63;;;17.40;69.30;;;;;;4626112;30;20086;-78
2021/12/16 07:06:23;;;;;;;8.65;1.70;;;17.50;69.10;;;;;;4619884;31;20063;-78
2021/12/16 07:08:52;;;;;;;11.23;2.20;;;17.50;69.00;;;;;;4634999;31;20369;-82
2021/12/16 07:11:19;;;;;;;13.50;2.53;;;17.50;68.90;;;;;;4634768;30;20441;-74
2021/12/16 07:13:56;;;;;;;11.32;2.53;;;17.50;68.70;;;;;;4634511;31;20113;-82
2021/12/16 07:16:28;;;;;;;12.68;2.28;;;17.50;68.50;;;;;;4636879;30;20388;-86
2021/12/16 07:19:22;;;;;;;16.33;2.75;;;17.50;68.60;;;;;;4622309;30;20451;-83
2021/12/16 07:21:48;;;;;;;13.40;2.15;;;17.40;68.50;;;;;;4607278;31;20090;-78
2021/12/16 07:24:18;;;;;;;11.43;2.40;;;17.40;69.10;;;;;;4620224;30;20149;-78
2021/12/16 07:26:47;;;;;;;10.50;2.50;;;17.40;70.20;;;;;;4614900;31;20107;-80
2021/12/16 07:29:13;;;;;;;13.40;2.53;;;17.40;70.80;;;;;;4614364;30;20367;-80
2021/12/16 07:31:39;;;;;;;13.75;3.25;;;17.20;70.50;;;;;;4625301;30;20126;-82
2021/12/16 07:34:09;;;;;;;14.35;2.65;;;17.10;70.80;;;;;;4629139;30;20070;-81
2021/12/16 07:36:37;;;;;;;13.13;2.15;;;17.10;70.80;;;;;;4633568;30;20193;-80
2021/12/16 07:39:07;;;;;;;13.38;2.75;;;17.10;70.40;;;;;;4618005;30;20059;-80
2021/12/16 07:41:34;;;;;;;8.93;2.25;;;17.20;70.20;;;;;;4635398;30;20054;-79
2021/12/16 07:44:14;;;;;;;9.98;2.58;;;17.20;70.20;;;;;;4635410;30;20112;-82
2021/12/16 07:47:01;;;;;;;11.82;2.63;;;17.20;70.40;;;;;;4636052;30;20140;-81
2021/12/16 07:49:36;;;;;;;4.68;2.15;;;17.20;70.60;;;;;;4646618;30;20079;-82
2021/12/16 07:52:04;;;;;;;11.15;2.30;;;17.20;71.20;;;;;;4619218;31;20053;-81
2021/12/16 07:54:32;;;;;;;10.35;2.78;;;17.20;71.00;;;;;;4619016;31;20051;-78
2021/12/16 07:56:59;;;;;;;9.85;2.50;;;17.20;71.70;;;;;;4645010;30;20047;-78
2021/12/16 07:59:28;;;;;;;10.35;2.70;;;17.30;71.50;;;;;;4647060;30;20503;-81
2021/12/16 08:01:54;;;;;;;11.52;2.65;;;17.20;71.70;;;;;;4624024;30;20055;-79
2021/12/16 08:04:26;;;;;;;61.45;7.65;;;17.20;71.00;;;;;;4621124;30;20065;-79
2021/12/16 08:06:55;;;;;;;22.85;4.07;;;17.20;71.00;;;;;;4635898;30;20065;-79
2021/12/16 08:09:21;;;;;;;28.50;4.53;;;17.20;71.20;;;;;;4635024;30;20381;-80
2021/12/16 08:11:49;;;;;;;32.25;4.03;;;17.20;71.00;;;;;;4612328;30;20051;-81
2021/12/16 08:14:15;;;;;;;21.88;4.18;;;17.30;71.00;;;;;;4621600;30;20058;-78
2021/12/16 08:16:41;;;;;;;23.25;4.10;;;17.20;71.00;;;;;;4627352;30;20169;-79
2021/12/16 08:20:09;;;;;;;28.55;3.80;;;17.20;71.10;;;;;;4632427;30;20131;-79
2021/12/16 08:22:47;;;;;;;23.60;4.18;;;17.20;71.10;;;;;;4635660;30;20527;-79
2021/12/16 08:25:14;;;;;;;21.25;4.35;;;17.10;71.70;;;;;;4621267;30;20090;-79
2021/12/16 08:27:40;;;;;;;21.92;4.03;;;17.20;71.80;;;;;;4620168;31;20105;-79
2021/12/16 08:30:09;;;;;;;21.17;3.55;;;17.20;71.50;;;;;;4605130;31;20059;-79
2021/12/16 08:32:35;;;;;;;17.80;3.28;;;17.20;71.60;;;;;;4608770;30;20070;-76
2021/12/16 08:35:30;;;;;;;17.05;2.85;;;17.10;71.50;;;;;;4634624;30;20062;-80
2021/12/16 08:45:35;;;;;;;14.57;3.50;;;15.70;69.00;;;;;;4581804;31;20135;-77
2021/12/16 08:48:09;;;;;;;15.20;3.28;;;15.80;72.30;;;;;;4580486;30;20052;-84
2021/12/16 08:50:38;;;;;;;;;;;16.00;72.60;;;;;;4565649;31;20055;-80
2021/12/16 08:53:06;;;;;;;14.18;3.50;;;15.60;69.90;;;;;;4634287;31;20306;-79
2021/12/16 08:55:35;;;;;;;11.98;3.72;;;15.50;72.20;;;;;;4642326;30;20063;-80
2021/12/16 08:58:02;;;;;;;12.65;3.28;;;15.80;72.00;;;;;;4638944;30;20070;-80
2021/12/16 09:00:31;;;;;;;10.35;2.97;;;16.10;71.50;;;;;;4650089;30;20124;-78
2021/12/16 09:02:57;;;;;;;8.75;3.28;;;16.30;70.90;;;;;;4627895;31;20059;-79
2021/12/16 09:05:25;;;;;;;9.95;2.75;;;16.40;70.50;;;;;;4618068;31;20130;-79
2021/12/16 09:07:51;;;;;;;10.98;2.70;;;16.50;70.10;;;;;;4618680;31;20059;-78
2021/12/16 09:10:23;;;;;;;6.88;2.15;;;16.70;69.80;;;;;;4644587;30;20058;-78
2021/12/16 09:12:54;;;;;;;11.85;1.90;;;16.80;69.40;;;;;;4649546;30;20477;-79
2021/12/16 09:15:24;;;;;;;8.55;2.38;;;16.80;69.20;;;;;;4635802;30;20059;-81
2021/12/16 09:17:52;;;;;;;9.30;2.40;;;16.90;68.90;;;;;;4621987;31;20493;-80
2021/12/16 09:20:18;;;;;;;5.63;2.33;;;16.90;68.60;;;;;;4638240;30;20147;-80
2021/12/16 09:22:44;;;;;;;9.65;2.05;;;17.00;68.60;;;;;;4651761;30;20083;-81
2021/12/16 09:25:11;;;;;;;6.05;1.85;;;17.00;68.40;;;;;;4653571;30;20101;-80
2021/12/16 09:27:37;;;;;;;4.80;1.30;;;17.10;68.40;;;;;;4625805;30;20059;-81
2021/12/16 09:30:06;;;;;;;6.07;1.85;;;17.10;68.20;;;;;;4636509;31;20117;-81
2021/12/16 09:32:32;;;;;;;7.05;1.83;;;17.10;68.10;;;;;;4638766;30;20141;-81
2021/12/16 09:34:59;;;;;;;4.30;1.83;;;17.10;68.10;;;;;;4638051;30;20057;-78
2021/12/16 09:37:25;;;;;;;4.32;1.77;;;17.10;68.00;;;;;;4638421;30;20465;-80
2021/12/16 09:39:50;;;;;;;5.50;1.52;;;17.10;68.00;;;;;;4638130;30;20058;-79
2021/12/16 09:42:16;;;;;;;8.00;1.80;;;17.10;67.90;;;;;;4653144;30;20067;-79
2021/12/16 09:44:42;;;;;;;6.25;1.80;;;17.10;67.90;;;;;;4636365;30;20472;-76
2021/12/16 09:47:12;;;;;;;2.40;1.38;;;17.00;68.40;;;;;;4629780;30;20098;-76
2021/12/16 09:49:38;;;;;;;4.63;1.73;;;17.00;67.80;;;;;;4637640;30;20055;-74
2021/12/16 09:52:07;;;;;;;6.20;1.42;;;17.10;68.00;;;;;;4622019;31;20130;-76
2021/12/16 09:54:34;;;;;;;8.30;2.25;;;17.10;67.90;;;;;;4605768;31;20152;-76
2021/12/16 09:57:01;;;;;;;3.03;1.35;;;17.10;67.80;;;;;;4648944;30;20067;-78
2021/12/16 09:59:29;;;;;;;3.63;1.60;;;17.20;67.70;;;;;;4635375;30;20149;-77
2021/12/16 10:01:59;;;;;;;5.05;1.58;;;17.30;67.70;;;;;;4625926;30;20058;-76
2021/12/16 10:04:31;;;;;;;5.10;1.17;;;17.30;67.60;;;;;;4652328;30;20059;-75
2021/12/16 10:07:00;;;;;;;7.13;1.70;;;17.30;67.60;;;;;;4649138;30;20420;-75
2021/12/16 10:09:28;;;;;;;3.33;1.10;;;17.40;67.70;;;;;;4644644;30;20484;-76
2021/12/16 10:11:57;;;;;;;4.25;1.17;;;17.40;67.60;;;;;;4652298;30;20063;-75
2021/12/16 10:14:47;;;;;;;5.10;1.45;;;17.40;67.60;;;;;;4668603;30;20121;-77
2021/12/16 10:17:29;;;;;;;2.78;1.60;;;17.50;67.50;;;;;;4661320;30;20177;-77
2021/12/16 10:20:13;;;;;;;4.03;1.42;;;17.50;67.40;;;;;;4637057;30;20059;-75
2021/12/16 10:22:42;;;;;;;6.60;1.30;;;17.50;67.50;;;;;;4635765;31;20066;-76
2021/12/16 10:25:29;;;;;;;3.85;1.20;;;17.50;68.10;;;;;;4637717;30;20171;-77
2021/12/16 10:28:23;;;;;;;4.63;1.67;;;17.50;67.50;;;;;;4651293;30;20133;-76
2021/12/16 10:31:04;;;;;;;4.60;1.48;;;17.50;67.60;;;;;;4652147;30;20476;-74
2021/12/16 10:33:38;;;;;;;5.07;1.80;;;17.50;67.50;;;;;;4636537;30;20059;-78
2021/12/16 10:36:09;;;;;;;5.05;1.80;;;17.50;67.50;;;;;;4639742;30;20094;-75
2021/12/16 10:38:39;;;;;;;7.05;1.95;;;17.50;67.70;;;;;;4624012;31;20067;-76
2021/12/16 10:41:06;;;;;;;4.57;1.38;;;17.50;67.80;;;;;;4635510;31;20047;-81
2021/12/16 10:43:38;;;;;;;6.00;1.75;;;17.50;67.50;;;;;;4634504;30;20059;-78
2021/12/16 10:46:15;;;;;;;4.60;1.45;;;17.50;67.30;;;;;;4634233;31;20063;-78
2021/12/16 10:48:48;;;;;;;4.25;1.60;;;17.50;67.20;;;;;;4635067;30;20134;-80
2021/12/16 10:51:21;;;;;;;8.40;2.03;;;17.50;67.20;;;;;;4635338;30;20067;-78
2021/12/16 10:53:46;;;;;;;7.07;1.45;;;17.50;67.20;;;;;;4636583;30;20380;-79
2021/12/16 10:56:13;;;;;;;8.48;1.77;;;17.50;67.30;;;;;;4636792;30;20157;-78
2021/12/16 10:59:06;;;;;;;5.43;1.80;;;17.40;67.30;;;;;;4650675;30;20473;-78
2021/12/16 11:01:41;;;;;;;4.88;1.60;;;17.50;67.40;;;;;;4632224;31;20488;-79
2021/12/16 11:04:14;;;;;;;6.10;1.90;;;17.50;67.60;;;;;;4646220;30;20465;-78
2021/12/16 11:06:48;;;;;;;6.63;1.80;;;17.40;67.70;;;;;;4635786;30;20067;-77
2021/12/16 11:09:31;;;;;;;6.00;1.67;;;17.40;67.50;;;;;;4634705;31;20065;-77
2021/12/16 11:12:11;;;;;;;9.85;1.98;;;17.50;67.20;;;;;;4634097;31;20458;-79
2021/12/16 11:14:40;;;;;;;11.77;1.95;;;17.40;67.20;;;;;;4634173;31;20063;-78
2021/12/16 11:17:09;;;;;;;9.00;2.38;;;17.50;67.40;;;;;;4634940;31;20500;-81
2021/12/16 11:19:39;;;;;;;8.38;1.75;;;17.50;67.40;;;;;;4641261;30;20101;-79
2021/12/16 11:22:09;;;;;;;12.00;3.00;;;17.50;67.40;;;;;;4636610;30;20098;-80
2021/12/16 11:24:35;;;;;;;12.02;2.30;;;17.50;67.40;;;;;;4651434;30;20101;-78
2021/12/16 11:27:33;;;;;;;7.22;2.25;;;17.50;67.20;;;;;;4651350;30;20082;-80
2021/12/16 11:30:18;;;;;;;9.25;2.95;;;17.40;67.40;;;;;;4636636;30;20070;-75
2021/12/16 11:32:46;;;;;;;11.02;2.60;;;17.50;67.60;;;;;;4622637;30;20486;-74
2021/12/16 11:35:24;;;;;;;11.05;3.05;;;17.50;67.70;;;;;;4651584;30;20076;-75
2021/12/16 11:37:50;;;;;;;8.73;3.05;;;17.50;67.40;;;;;;4650713;30;20129;-75
2021/12/16 11:40:18;;;;;;;10.57;2.92;;;17.50;67.70;;;;;;4651353;30;20055;-78
2021/12/16 11:43:05;;;;;;;11.95;3.22;;;17.50;67.70;;;;;;4636896;30;20070;-74
2021/12/16 11:45:34;;;;;;;6.60;2.78;;;17.40;67.30;;;;;;4636097;30;20054;-74
2021/12/16 11:48:00;;;;;;;11.35;2.83;;;17.40;67.60;;;;;;4651190;30;20066;-76
2021/12/16 11:50:34;;;;;;;11.27;2.30;;;17.40;68.30;;;;;;4636413;30;20419;-76
2021/12/16 11:53:00;;;;;;;15.52;2.70;;;17.40;67.90;;;;;;4635911;30;20055;-75
2021/12/16 11:55:26;;;;;;;9.90;2.85;;;17.40;68.20;;;;;;4620898;30;20055;-77
2021/12/16 11:58:00;;;;;;;10.32;2.70;;;17.30;68.60;;;;;;4634001;31;20133;-75
2021/12/16 12:00:34;;;;;;;8.63;2.50;;;17.30;68.70;;;;;;4662913;30;20065;-76
2021/12/16 12:03:11;;;;;;;10.15;2.63;;;17.30;68.80;;;;;;4667979;30;20454;-77
2021/12/16 12:05:44;;;;;;;14.77;3.45;;;17.30;68.80;;;;;;4665630;30;20523;-77
2021/12/16 12:08:24;;;;;;;10.48;2.97;;;17.30;69.00;;;;;;4667733;30;20064;-76
2021/12/16 12:10:59;;;;;;;12.98;4.15;;;17.20;68.80;;;;;;4657626;30;20063;-76
2021/12/16 12:13:45;;;;;;;12.68;4.43;;;17.20;68.70;;;;;;4650578;30;20070;-78
2021/12/16 12:16:18;;;;;;;11.75;3.55;;;17.20;68.70;;;;;;4632928;30;20468;-77
2021/12/16 12:19:08;;;;;;;8.80;3.30;;;17.20;68.90;;;;;;4635719;30;20146;-76
2021/12/16 12:21:39;;;;;;;38.33;3.78;;;17.10;68.90;;;;;;4621435;31;20110;-78
2021/12/16 12:24:22;;;;;;;13.00;3.60;;;17.10;69.00;;;;;;4632973;31;20059;-78
2021/12/16 12:26:55;;;;;;;11.48;3.05;;;17.10;69.10;;;;;;4633825;31;20065;-77
2021/12/16 12:29:29;;;;;;;9.27;3.33;;;16.90;69.00;;;;;;4633241;31;20469;-77
2021/12/16 12:32:00;;;;;;;6.82;3.08;;;16.90;69.40;;;;;;4607434;30;20134;-75
2021/12/16 12:34:26;;;;;;;6.97;2.83;;;16.90;69.50;;;;;;4640676;30;20125;-75
2021/12/16 12:36:54;;;;;;;8.57;3.10;;;16.90;69.60;;;;;;4650421;30;20137;-75
2021/12/16 12:39:24;;;;;;;9.50;3.20;;;16.90;69.60;;;;;;4635469;30;20133;-75
2021/12/16 12:41:52;;;;;;;8.45;2.78;;;16.90;69.70;;;;;;4650177;30;20055;-74
2021/12/16 12:44:22;;;;;;;8.70;2.53;;;16.90;69.70;;;;;;4641320;30;20063;-77
2021/12/16 12:46:49;;;;;;;6.88;2.90;;;16.90;69.80;;;;;;4633460;31;20377;-77
2021/12/16 12:49:17;;;;;;;12.02;3.35;;;16.90;69.80;;;;;;4648708;30;20097;-75
2021/12/16 12:51:48;;;;;;;6.38;2.67;;;16.90;69.80;;;;;;4639427;30;20062;-77
2021/12/16 12:54:30;;;;;;;7.72;2.35;;;16.80;69.80;;;;;;4653716;30;20411;-76
2021/12/16 12:57:17;;;;;;;9.20;2.30;;;16.80;69.80;;;;;;4639098;30;20055;-75
2021/12/16 12:59:42;;;;;;;6.45;2.90;;;16.80;69.80;;;;;;4650550;30;20118;-76
2021/12/16 13:02:26;;;;;;;7.57;2.83;;;16.80;70.50;;;;;;4636800;31;20063;-76
2021/12/16 13:05:08;;;;;;;7.60;2.78;;;16.80;69.90;;;;;;4636573;31;20051;-76
2021/12/16 13:07:44;;;;;;;7.25;3.03;;;16.80;70.00;;;;;;4637225;30;20063;-77
2021/12/16 13:10:24;;;;;;;12.60;3.30;;;16.80;70.00;;;;;;4648932;30;20054;-76
2021/12/16 13:13:17;;;;;;;26.70;6.97;;;16.80;70.00;;;;;;4653987;30;20070;-77
2021/12/16 13:15:53;;;;;;;31.02;9.07;;;16.80;69.70;;;;;;4638505;30;20054;-78
2021/12/16 13:27:01;;;;;;;26.88;7.30;;;16.80;67.60;;;;;;4653491;30;20059;-80
2021/12/16 13:29:36;;;;;;;14.00;6.22;;;16.70;67.80;;;;;;4624560;30;20166;-81
2021/12/16 13:32:09;;;;;;;16.45;5.60;;;16.70;68.60;;;;;;4652480;30;20618;-82
2021/12/16 13:34:38;;;;;;;15.88;5.10;;;16.70;68.00;;;;;;4638509;30;20059;-80
2021/12/16 13:37:21;;;;;;;17.73;5.85;;;16.70;68.10;;;;;;4638522;30;20146;-80
2021/12/16 13:39:48;;;;;;;19.35;4.85;;;16.70;68.20;;;;;;4624528;31;20122;-80
2021/12/16 13:42:15;;;;;;;13.02;4.70;;;16.70;68.30;;;;;;4621075;31;20069;-81
2021/12/16 13:44:50;;;;;;;13.70;4.70;;;16.80;68.50;;;;;;4621292;31;20052;-84
2021/12/16 13:47:44;;;;;;;14.38;4.47;;;16.80;68.40;;;;;;4621800;31;20110;-77
2021/12/16 14:05:40;;;;;;;12.80;4.00;;;16.80;69.10;;;;;;4635976;31;20067;-77
2021/12/16 14:08:13;;;;;;;12.48;4.18;;;16.80;69.20;;;;;;4635148;31;20070;-80
2021/12/16 14:16:39;;;;;;;14.63;3.35;;;16.80;69.50;;;;;;4620623;31;20128;-78
2021/12/16 14:47:02;;;;;;;8.88;3.17;;;16.60;68.90;;;;;;4652173;30;20063;-80
2021/12/16 14:49:34;;;;;;;9.07;3.97;;;16.60;69.00;;;;;;4652617;30;20385;-80
2021/12/16 14:52:00;;;;;;;8.95;3.80;;;16.60;69.00;;;;;;4623419;30;20062;-79
2021/12/16 14:54:27;;;;;;;7.95;3.47;;;16.50;68.90;;;;;;4623312;30;20054;-78
2021/12/16 14:56:58;;;;;;;8.32;3.40;;;16.50;68.80;;;;;;4637663;30;20054;-78
2021/12/16 14:59:26;;;;;;;8.13;3.65;;;16.50;68.80;;;;;;4652576;30;20503;-81
2021/12/16 15:01:53;;;;;;;9.40;3.17;;;16.50;68.80;;;;;;4637047;30;20138;-77
2021/12/16 15:04:25;;;;;;;6.90;3.08;;;16.50;68.80;;;;;;4623758;31;20473;-79
2021/12/16 15:07:01;;;;;;;6.07;2.63;;;16.50;68.80;;;;;;4635081;31;20055;-79
2021/12/16 15:09:30;;;;;;;10.95;3.40;;;16.50;68.70;;;;;;4620276;31;20059;-78
2021/12/16 15:12:06;;;;;;;11.13;3.90;;;16.50;68.80;;;;;;4634877;31;20342;-79
2021/12/16 15:17:19;;;;;;;7.72;3.20;;;16.50;69.10;;;;;;4620026;31;20099;-78
2021/12/16 15:45:24;;;;;;;9.98;2.90;;;16.50;68.80;;;;;;4650927;30;20059;-80
2021/12/16 15:47:56;;;;;;;7.63;2.80;;;16.40;68.70;;;;;;4651271;30;20055;-78
2021/12/16 15:50:27;;;;;;;4.95;2.28;;;16.40;68.80;;;;;;4636558;30;20058;-80
2021/12/16 15:52:55;;;;;;;7.80;3.05;;;16.40;68.70;;;;;;4651418;30;20101;-79
2021/12/16 15:55:32;;;;;;;6.03;2.88;;;16.40;68.80;;;;;;4650846;30;20528;-78
2021/12/16 15:58:14;;;;;;;4.40;2.35;;;16.40;68.70;;;;;;4635851;30;20473;-80
2021/12/16 16:00:43;;;;;;;6.53;2.80;;;16.40;68.70;;;;;;4651255;30;20074;-81
2021/12/16 16:03:12;;;;;;;9.45;3.53;;;16.40;68.80;;;;;;4648572;30;20405;-78
2021/12/16 16:05:43;;;;;;;7.75;3.80;;;16.40;68.80;;;;;;4645823;30;20094;-79
2021/12/16 16:08:12;;;;;;;10.68;4.03;;;16.40;68.80;;;;;;4633943;31;20059;-80
2021/12/16 16:10:40;;;;;;;10.35;4.10;;;16.40;68.90;;;;;;4619331;31;20102;-78
2021/12/16 16:13:20;;;;;;;8.70;3.70;;;16.40;69.10;;;;;;4633941;31;20074;-84
2021/12/16 16:15:48;;;;;;;8.75;3.22;;;16.40;69.40;;;;;;4633224;31;20102;-79
2021/12/16 16:21:13;;;;;;;12.80;3.90;;;16.40;70.10;;;;;;4618984;31;20063;-77
2021/12/16 16:23:44;;;;;;;7.20;3.27;;;16.40;70.40;;;;;;4618713;31;20059;-79
2021/12/16 16:26:12;;;;;;;11.00;3.30;;;16.40;70.50;;;;;;4605093;31;20055;-77
2021/12/16 16:28:43;;;;;;;11.55;3.85;;;16.50;70.80;;;;;;4618635;31;20543;-80
2021/12/16 16:31:13;;;;;;;15.27;4.15;;;16.40;71.00;;;;;;4633859;31;20465;-76
2021/12/16 16:33:39;;;;;;;13.60;3.75;;;16.40;71.20;;;;;;4645112;30;20360;-75
2021/12/16 16:36:11;;;;;;;13.70;4.15;;;16.50;71.30;;;;;;4650545;30;20047;-76
2021/12/16 16:38:52;;;;;;;11.90;3.65;;;16.50;71.50;;;;;;4651612;30;20074;-72
2021/12/16 16:41:23;;;;;;;10.70;3.92;;;16.50;71.70;;;;;;4649704;30;20516;-77
2021/12/16 16:43:59;;;;;;;9.93;4.35;;;16.50;72.10;;;;;;4639200;30;20042;-77
2021/12/16 16:46:43;;;;;;;16.00;4.35;;;16.50;72.30;;;;;;4634811;30;20428;-79
2021/12/16 16:49:13;;;;;;;24.73;4.93;;;16.50;72.60;;;;;;4649682;30;20134;-76
2021/12/16 16:51:48;;;;;;;18.70;5.00;;;16.60;72.40;;;;;;4650189;30;20054;-78
2021/12/16 16:54:28;;;;;;;18.30;5.20;;;16.60;73.40;;;;;;4649209;30;20460;-75
2021/12/16 16:56:57;;;;;;;18.58;4.60;;;16.70;74.50;;;;;;4649166;30;20057;-77
2021/12/16 16:59:34;;;;;;;17.40;4.45;;;16.70;75.40;;;;;;4650322;30;20614;-75
2021/12/16 17:02:22;;;;;;;18.38;3.75;;;16.70;75.40;;;;;;4650630;30;20132;-73
2021/12/16 17:04:56;;;;;;;10.88;4.15;;;16.80;74.30;;;;;;4650467;30;20469;-73
2021/12/16 17:07:23;;;;;;;17.05;4.35;;;16.80;73.40;;;;;;4649700;30;20523;-74